createdAt,value
2017-06-26T00:00:02.847Z,25.34
2017-06-26T00:00:43.304Z,25.37
2017-06-26T00:01:23.761Z,25.4
2017-06-26T00:02:04.223Z,25.36
2017-06-26T00:02:44.677Z,25.39
2017-06-26T00:03:25.136Z,25.36
2017-06-26T00:04:05.596Z,25.36
2017-06-26T00:04:46.054Z,25.34
2017-06-26T00:05:26.520Z,25.37
2017-06-26T00:06:06.980Z,25.34
2017-06-26T00:06:47.446Z,25.37
2017-06-26T00:07:27.900Z,25.34
2017-06-26T00:08:08.357Z,25.4
2017-06-26T00:08:48.823Z,25.41
2017-06-26T00:09:29.273Z,25.37
2017-06-26T00:10:09.730Z,25.37
2017-06-26T00:10:50.195Z,25.41
2017-06-26T00:13:04.278Z,25.37
2017-06-26T00:13:44.734Z,25.3
2017-06-26T00:14:25.193Z,25.33
2017-06-26T00:15:05.636Z,25.24
2017-06-26T00:15:46.101Z,25.34
2017-06-26T00:16:26.542Z,25.37
2017-06-26T00:17:07.003Z,25.33
2017-06-26T00:17:47.463Z,25.37
2017-06-26T00:18:27.921Z,25.36
2017-06-26T00:19:08.376Z,25.34
2017-06-26T00:19:48.832Z,25.33
2017-06-26T00:20:29.292Z,25.37
2017-06-26T00:21:09.750Z,25.34
2017-06-26T00:21:50.201Z,25.25
2017-06-26T00:22:30.646Z,25.34
2017-06-26T00:23:11.103Z,25.36
2017-06-26T00:23:51.554Z,25.29
2017-06-26T00:24:32.020Z,25.29
2017-06-26T00:25:12.470Z,25.25
2017-06-26T00:25:52.922Z,25.26
2017-06-26T00:26:33.372Z,25.22
2017-06-26T00:27:13.819Z,25.26
2017-06-26T00:27:54.270Z,25.25
2017-06-26T00:28:34.722Z,25.21
2017-06-26T00:29:15.177Z,25.22
2017-06-26T00:29:55.638Z,25.18
2017-06-26T00:30:36.096Z,25.18
2017-06-26T00:31:16.553Z,25.18
2017-06-26T00:31:57.029Z,25.12
2017-06-26T00:32:37.479Z,25.15
2017-06-26T00:33:17.935Z,25.14
2017-06-26T00:33:58.393Z,25.11
2017-06-26T00:34:38.847Z,25.14
2017-06-26T00:35:19.302Z,25.14
2017-06-26T00:35:59.759Z,25.14
2017-06-26T00:36:40.213Z,25.09
2017-06-26T00:37:20.671Z,25.12
2017-06-26T00:38:01.154Z,25.14
2017-06-26T00:38:41.614Z,25.09
2017-06-26T00:39:22.102Z,25.14
2017-06-26T00:40:02.540Z,25.11
2017-06-26T00:40:42.999Z,25.12
2017-06-26T00:41:23.456Z,25.14
2017-06-26T00:42:03.917Z,25.12
2017-06-26T00:42:44.377Z,25.14
2017-06-26T00:43:24.858Z,25.18
2017-06-26T00:44:05.284Z,25.12
2017-06-26T00:44:45.752Z,25.11
2017-06-26T00:45:26.208Z,25.11
2017-06-26T00:46:06.666Z,25.15
2017-06-26T00:46:47.128Z,25.12
2017-06-26T00:47:27.587Z,25.12
2017-06-26T00:48:08.048Z,25.12
2017-06-26T00:48:48.512Z,25.11
2017-06-26T00:49:28.966Z,25.18
2017-06-26T00:50:09.426Z,25.12
2017-06-26T00:50:49.886Z,25.15
2017-06-26T00:51:30.346Z,25.14
2017-06-26T00:52:10.806Z,25.12
2017-06-26T00:52:51.263Z,25.07
2017-06-26T00:53:31.720Z,25.06
2017-06-26T00:54:12.179Z,25.19
2017-06-26T00:54:52.641Z,25.15
2017-06-26T00:55:33.096Z,25.09
2017-06-26T00:56:13.553Z,25.14
2017-06-26T00:56:54.003Z,25.07
2017-06-26T00:57:34.465Z,25.14
2017-06-26T00:58:14.914Z,25.03
2017-06-26T00:58:55.377Z,25.09
2017-06-26T00:59:35.875Z,25.07
2017-06-26T01:00:16.335Z,25.03
2017-06-26T01:00:56.790Z,25.01
2017-06-26T01:01:37.251Z,25.12
2017-06-26T01:02:17.709Z,25.07
2017-06-26T01:02:58.170Z,25.03
2017-06-26T01:03:38.630Z,25.09
2017-06-26T01:04:19.087Z,25.16
2017-06-26T01:04:59.547Z,25.15
2017-06-26T01:05:39.996Z,25.12
2017-06-26T01:06:21.409Z,25.15
2017-06-26T01:07:01.874Z,25.15
2017-06-26T01:07:42.333Z,25.12
2017-06-26T01:08:22.792Z,25.11
2017-06-26T01:09:03.275Z,25.15
2017-06-26T01:09:43.696Z,25.18
2017-06-26T01:10:24.156Z,25.14
2017-06-26T01:11:04.616Z,25.14
2017-06-26T01:11:45.078Z,25.19
2017-06-26T01:12:25.535Z,25.19
2017-06-26T01:13:05.993Z,25.12
2017-06-26T01:13:46.443Z,25.14
2017-06-26T01:14:26.897Z,25.16
2017-06-26T01:15:07.351Z,25.18
2017-06-26T01:15:47.815Z,25.12
2017-06-26T01:16:28.284Z,25.11
2017-06-26T01:17:08.740Z,25.14
2017-06-26T01:17:49.196Z,25.07
2017-06-26T01:18:29.660Z,25.12
2017-06-26T01:19:10.116Z,25.04
2017-06-26T01:19:50.576Z,25.16
2017-06-26T01:20:31.037Z,25.14
2017-06-26T01:21:11.495Z,25.04
2017-06-26T01:21:51.951Z,25.15
2017-06-26T01:22:32.397Z,25.14
2017-06-26T01:23:12.858Z,25.15
2017-06-26T01:23:53.310Z,25.12
2017-06-26T01:24:33.763Z,25.15
2017-06-26T01:25:14.220Z,25.21
2017-06-26T01:25:54.680Z,25.18
2017-06-26T01:26:35.141Z,25.14
2017-06-26T01:27:15.618Z,25.14
2017-06-26T01:27:56.070Z,25.19
2017-06-26T01:28:36.528Z,25.19
2017-06-26T01:29:16.985Z,25.22
2017-06-26T01:29:57.436Z,25.18
2017-06-26T01:30:37.898Z,25.21
2017-06-26T01:31:18.346Z,25.19
2017-06-26T01:31:58.804Z,25.19
2017-06-26T01:32:39.261Z,25.21
2017-06-26T01:33:19.725Z,25.3
2017-06-26T01:34:00.175Z,25.22
2017-06-26T01:34:40.631Z,25.24
2017-06-26T01:35:21.085Z,25.18
2017-06-26T01:36:01.546Z,25.22
2017-06-26T01:36:42.009Z,25.19
2017-06-26T01:37:22.470Z,25.24
2017-06-26T01:38:02.926Z,25.21
2017-06-26T01:38:43.378Z,25.21
2017-06-26T01:39:23.833Z,25.19
2017-06-26T01:40:04.293Z,25.21
2017-06-26T01:40:44.749Z,25.29
2017-06-26T01:41:25.203Z,25.21
2017-06-26T01:42:05.660Z,25.18
2017-06-26T01:42:46.117Z,25.19
2017-06-26T01:43:26.574Z,25.16
2017-06-26T01:44:07.028Z,25.21
2017-06-26T01:44:47.491Z,25.22
2017-06-26T01:45:27.953Z,25.15
2017-06-26T01:46:08.401Z,25.19
2017-06-26T01:46:48.841Z,25.16
2017-06-26T01:47:29.299Z,25.14
2017-06-26T01:48:09.760Z,25.07
2017-06-26T01:48:50.234Z,25.07
2017-06-26T01:49:30.717Z,25.03
2017-06-26T01:50:11.173Z,25.01
2017-06-26T01:50:51.630Z,25
2017-06-26T01:51:32.092Z,25.09
2017-06-26T01:52:12.556Z,25.03
2017-06-26T01:52:53.016Z,25.07
2017-06-26T01:53:33.455Z,25
2017-06-26T01:54:13.917Z,24.97
2017-06-26T01:54:54.377Z,25
2017-06-26T01:55:34.841Z,24.94
2017-06-26T01:56:15.299Z,24.96
2017-06-26T01:56:55.749Z,24.99
2017-06-26T01:57:36.214Z,24.96
2017-06-26T01:58:16.680Z,24.96
2017-06-26T01:58:57.131Z,24.92
2017-06-26T01:59:37.586Z,24.82
2017-06-26T02:00:18.086Z,24.92
2017-06-26T02:00:58.546Z,24.86
2017-06-26T02:01:39.006Z,24.92
2017-06-26T02:02:19.457Z,24.88
2017-06-26T02:02:59.919Z,24.88
2017-06-26T02:03:40.375Z,24.88
2017-06-26T02:04:20.835Z,24.82
2017-06-26T02:05:01.293Z,24.92
2017-06-26T02:05:41.750Z,24.86
2017-06-26T02:06:22.212Z,24.85
2017-06-26T02:07:02.669Z,24.84
2017-06-26T02:07:43.130Z,24.84
2017-06-26T02:08:23.595Z,24.82
2017-06-26T02:09:04.063Z,24.82
2017-06-26T02:09:44.566Z,24.69
2017-06-26T02:10:25.025Z,24.79
2017-06-26T02:11:05.480Z,24.71
2017-06-26T02:11:45.936Z,24.78
2017-06-26T02:12:26.403Z,24.81
2017-06-26T02:13:06.854Z,24.75
2017-06-26T02:13:47.312Z,24.77
2017-06-26T02:14:27.773Z,24.74
2017-06-26T02:15:08.235Z,24.75
2017-06-26T02:15:48.671Z,24.69
2017-06-26T02:16:29.128Z,24.74
2017-06-26T02:17:09.582Z,24.78
2017-06-26T02:17:50.033Z,24.68
2017-06-26T02:18:30.488Z,24.69
2017-06-26T02:19:10.946Z,24.65
2017-06-26T02:19:51.408Z,24.71
2017-06-26T02:20:31.869Z,24.65
2017-06-26T02:21:12.327Z,24.65
2017-06-26T02:21:52.781Z,24.71
2017-06-26T02:22:33.235Z,24.75
2017-06-26T02:23:13.692Z,24.74
2017-06-26T02:23:54.157Z,24.66
2017-06-26T02:24:34.601Z,24.68
2017-06-26T02:25:15.061Z,24.69
2017-06-26T02:25:55.509Z,24.69
2017-06-26T02:26:35.956Z,24.65
2017-06-26T02:27:16.409Z,24.68
2017-06-26T02:27:56.864Z,24.66
2017-06-26T02:28:37.316Z,24.68
2017-06-26T02:30:14.784Z,24.68
2017-06-26T02:30:55.251Z,24.74
2017-06-26T02:31:35.730Z,24.71
2017-06-26T02:32:16.183Z,24.68
2017-06-26T02:32:56.645Z,24.69
2017-06-26T02:33:37.102Z,24.69
2017-06-26T02:34:17.580Z,24.74
2017-06-26T02:34:58.028Z,24.69
2017-06-26T02:35:38.483Z,24.71
2017-06-26T02:36:18.933Z,24.65
2017-06-26T02:36:59.371Z,24.69
2017-06-26T02:37:39.804Z,24.66
2017-06-26T02:38:20.267Z,24.66
2017-06-26T02:39:00.722Z,24.74
2017-06-26T02:39:41.175Z,24.68
2017-06-26T02:40:21.632Z,24.69
2017-06-26T02:41:02.088Z,24.75
2017-06-26T02:41:42.548Z,24.62
2017-06-26T02:42:23.001Z,24.68
2017-06-26T02:43:03.464Z,24.74
2017-06-26T02:43:43.919Z,24.78
2017-06-26T02:44:24.385Z,24.65
2017-06-26T02:45:04.838Z,24.74
2017-06-26T02:45:45.290Z,24.71
2017-06-26T02:46:25.749Z,24.78
2017-06-26T02:47:06.207Z,24.81
2017-06-26T02:47:46.664Z,24.71
2017-06-26T02:48:27.123Z,24.78
2017-06-26T02:49:07.577Z,24.79
2017-06-26T02:49:48.029Z,24.71
2017-06-26T02:50:28.483Z,24.75
2017-06-26T02:51:08.945Z,24.84
2017-06-26T02:51:49.402Z,24.85
2017-06-26T02:52:29.857Z,24.88
2017-06-26T02:53:10.315Z,24.84
2017-06-26T02:53:50.775Z,24.85
2017-06-26T02:54:31.240Z,24.86
2017-06-26T02:55:11.690Z,24.79
2017-06-26T02:55:52.152Z,24.79
2017-06-26T02:56:32.609Z,24.82
2017-06-26T02:57:13.067Z,24.81
2017-06-26T02:57:53.523Z,24.81
2017-06-26T02:58:33.992Z,24.77
2017-06-26T02:59:14.453Z,24.82
2017-06-26T02:59:54.920Z,24.81
2017-06-26T03:00:35.367Z,24.78
2017-06-26T03:01:15.829Z,24.84
2017-06-26T03:01:56.288Z,24.77
2017-06-26T03:02:36.749Z,24.77
2017-06-26T03:03:17.201Z,24.78
2017-06-26T03:03:57.660Z,24.75
2017-06-26T03:04:38.115Z,24.74
2017-06-26T03:05:18.577Z,24.71
2017-06-26T03:05:59.039Z,24.77
2017-06-26T03:06:39.488Z,24.74
2017-06-26T03:07:19.942Z,24.77
2017-06-26T03:08:00.393Z,24.71
2017-06-26T03:08:40.855Z,24.75
2017-06-26T03:09:21.304Z,24.74
2017-06-26T03:10:01.745Z,24.79
2017-06-26T03:10:42.190Z,24.82
2017-06-26T03:11:22.644Z,24.82
2017-06-26T03:12:03.084Z,24.77
2017-06-26T03:12:43.534Z,24.82
2017-06-26T03:13:23.983Z,24.79
2017-06-26T03:14:04.426Z,24.79
2017-06-26T03:14:44.882Z,24.82
2017-06-26T03:15:25.391Z,24.84
2017-06-26T03:16:05.850Z,24.79
2017-06-26T03:16:46.313Z,24.75
2017-06-26T03:17:26.774Z,24.84
2017-06-26T03:18:07.231Z,24.81
2017-06-26T03:18:47.681Z,24.82
2017-06-26T03:19:28.143Z,24.86
2017-06-26T03:20:08.593Z,24.78
2017-06-26T03:20:49.054Z,24.86
2017-06-26T03:21:29.505Z,24.93
2017-06-26T03:22:09.964Z,24.77
2017-06-26T03:22:50.423Z,24.82
2017-06-26T03:23:30.878Z,24.79
2017-06-26T03:24:11.350Z,24.84
2017-06-26T03:24:51.811Z,24.82
2017-06-26T03:25:32.258Z,24.82
2017-06-26T03:26:12.736Z,24.81
2017-06-26T03:26:53.181Z,24.69
2017-06-26T03:27:33.627Z,24.85
2017-06-26T03:28:14.089Z,24.81
2017-06-26T03:28:54.548Z,24.78
2017-06-26T03:29:35.009Z,24.86
2017-06-26T03:30:15.458Z,24.84
2017-06-26T03:30:55.917Z,24.82
2017-06-26T03:31:36.370Z,24.82
2017-06-26T03:32:16.832Z,24.86
2017-06-26T03:32:57.284Z,24.84
2017-06-26T03:33:37.730Z,24.86
2017-06-26T03:34:18.178Z,24.88
2017-06-26T03:34:58.647Z,24.86
2017-06-26T03:35:39.110Z,24.86
2017-06-26T03:36:19.567Z,24.84
2017-06-26T03:37:00.027Z,24.85
2017-06-26T03:37:40.487Z,24.82
2017-06-26T03:38:20.949Z,24.79
2017-06-26T03:39:01.391Z,24.75
2017-06-26T03:39:41.856Z,24.82
2017-06-26T03:40:22.310Z,24.79
2017-06-26T03:41:02.764Z,24.84
2017-06-26T03:41:43.226Z,24.75
2017-06-26T03:42:23.670Z,24.79
2017-06-26T03:43:04.119Z,24.81
2017-06-26T03:43:44.576Z,24.77
2017-06-26T03:44:25.028Z,24.82
2017-06-26T03:45:05.475Z,24.78
2017-06-26T03:45:45.935Z,24.74
2017-06-26T03:46:26.382Z,24.75
2017-06-26T03:47:06.833Z,24.84
2017-06-26T03:47:47.284Z,24.86
2017-06-26T03:48:27.730Z,24.85
2017-06-26T03:49:08.177Z,24.81
2017-06-26T03:49:48.643Z,24.84
2017-06-26T03:50:29.085Z,24.85
2017-06-26T03:51:09.539Z,24.81
2017-06-26T03:51:49.990Z,24.85
2017-06-26T03:52:30.435Z,24.84
2017-06-26T03:53:10.892Z,24.82
2017-06-26T03:53:51.350Z,24.82
2017-06-26T03:54:31.811Z,24.92
2017-06-26T03:55:12.269Z,24.88
2017-06-26T03:55:52.727Z,24.88
2017-06-26T03:56:33.180Z,24.88
2017-06-26T03:57:13.664Z,24.82
2017-06-26T03:57:54.113Z,24.92
2017-06-26T03:58:34.574Z,24.94
2017-06-26T03:59:15.037Z,24.92
2017-06-26T03:59:55.502Z,24.84
2017-06-26T04:00:35.999Z,24.85
2017-06-26T04:01:16.454Z,24.84
2017-06-26T04:01:56.913Z,24.92
2017-06-26T04:02:37.370Z,24.92
2017-06-26T04:03:17.833Z,24.89
2017-06-26T04:03:58.288Z,24.88
2017-06-26T04:04:38.760Z,24.89
2017-06-26T04:05:19.191Z,24.88
2017-06-26T04:05:59.643Z,24.82
2017-06-26T04:06:40.091Z,24.86
2017-06-26T04:07:20.547Z,24.89
2017-06-26T04:09:08.548Z,24.89
2017-06-26T04:09:49.010Z,24.85
2017-06-26T04:10:29.467Z,24.89
2017-06-26T04:11:09.924Z,24.85
2017-06-26T04:11:50.382Z,24.89
2017-06-26T04:12:30.916Z,24.85
2017-06-26T04:13:11.362Z,24.94
2017-06-26T04:13:51.811Z,24.84
2017-06-26T04:14:32.283Z,24.89
2017-06-26T04:15:12.739Z,24.88
2017-06-26T04:15:53.188Z,24.88
2017-06-26T04:16:33.641Z,24.86
2017-06-26T04:17:14.085Z,24.92
2017-06-26T04:17:54.533Z,24.89
2017-06-26T04:18:34.976Z,24.96
2017-06-26T04:19:15.437Z,24.97
2017-06-26T04:19:55.894Z,24.97
2017-06-26T04:20:36.351Z,25.01
2017-06-26T04:21:16.807Z,25.03
2017-06-26T04:21:57.265Z,25.07
2017-06-26T04:22:37.723Z,25.09
2017-06-26T04:23:18.186Z,25.06
2017-06-26T04:23:58.641Z,25.11
2017-06-26T04:24:39.103Z,25.11
2017-06-26T04:25:19.565Z,25.14
2017-06-26T04:26:00.016Z,25.21
2017-06-26T04:26:40.470Z,25.22
2017-06-26T04:27:20.918Z,25.24
2017-06-26T04:28:01.401Z,25.19
2017-06-26T04:28:41.830Z,25.18
2017-06-26T04:29:22.367Z,25.24
2017-06-26T04:30:02.794Z,25.24
2017-06-26T04:30:43.302Z,25.26
2017-06-26T04:31:23.705Z,25.31
2017-06-26T04:32:04.156Z,25.3
2017-06-26T04:32:44.615Z,25.29
2017-06-26T04:33:25.079Z,25.36
2017-06-26T04:34:05.542Z,25.24
2017-06-26T04:34:46.004Z,25.26
2017-06-26T04:35:26.460Z,25.33
2017-06-26T04:36:06.913Z,25.4
2017-06-26T04:36:47.360Z,25.33
2017-06-26T04:37:27.807Z,25.41
2017-06-26T04:38:08.287Z,25.39
2017-06-26T04:38:48.750Z,25.37
2017-06-26T04:39:29.213Z,25.37
2017-06-26T04:40:09.669Z,25.48
2017-06-26T04:40:50.122Z,25.34
2017-06-26T04:41:30.586Z,25.36
2017-06-26T04:42:11.047Z,25.44
2017-06-26T04:42:51.496Z,25.41
2017-06-26T04:43:31.944Z,25.34
2017-06-26T04:44:12.406Z,25.48
2017-06-26T04:44:52.863Z,25.46
2017-06-26T04:45:33.323Z,25.49
2017-06-26T04:46:13.774Z,25.46
2017-06-26T04:46:54.231Z,25.46
2017-06-26T04:47:34.676Z,25.52
2017-06-26T04:48:15.137Z,25.52
2017-06-26T04:48:55.596Z,25.49
2017-06-26T04:49:36.054Z,25.52
2017-06-26T04:50:16.509Z,25.51
2017-06-26T04:50:56.961Z,25.52
2017-06-26T04:51:37.410Z,25.4
2017-06-26T04:52:17.892Z,25.46
2017-06-26T04:52:58.358Z,25.54
2017-06-26T04:53:38.813Z,25.56
2017-06-26T04:54:19.272Z,25.52
2017-06-26T04:54:59.734Z,25.52
2017-06-26T04:55:40.192Z,25.59
2017-06-26T04:56:20.649Z,25.61
2017-06-26T04:57:01.105Z,25.58
2017-06-26T04:57:41.568Z,25.61
2017-06-26T04:58:22.013Z,25.59
2017-06-26T04:59:02.463Z,25.56
2017-06-26T04:59:42.921Z,25.52
2017-06-26T05:00:23.374Z,25.63
2017-06-26T05:01:03.828Z,25.59
2017-06-26T05:01:44.298Z,25.55
2017-06-26T05:02:24.759Z,25.62
2017-06-26T05:03:05.219Z,25.61
2017-06-26T05:03:45.681Z,25.63
2017-06-26T05:04:26.164Z,25.61
2017-06-26T05:05:06.633Z,25.59
2017-06-26T05:05:47.129Z,25.66
2017-06-26T05:06:27.602Z,25.67
2017-06-26T05:07:08.035Z,25.59
2017-06-26T05:07:48.490Z,25.67
2017-06-26T05:08:28.946Z,25.63
2017-06-26T05:09:09.405Z,25.66
2017-06-26T05:09:49.849Z,25.67
2017-06-26T05:10:30.312Z,25.68
2017-06-26T05:11:10.773Z,25.62
2017-06-26T05:11:51.265Z,25.63
2017-06-26T05:12:31.728Z,25.67
2017-06-26T05:13:12.184Z,25.66
2017-06-26T05:13:52.641Z,25.56
2017-06-26T05:14:33.102Z,25.59
2017-06-26T05:15:13.569Z,25.68
2017-06-26T05:15:54.023Z,25.59
2017-06-26T05:16:34.484Z,25.71
2017-06-26T05:17:14.937Z,25.7
2017-06-26T05:17:55.397Z,25.68
2017-06-26T05:18:35.848Z,25.73
2017-06-26T05:19:16.299Z,25.71
2017-06-26T05:19:56.750Z,25.73
2017-06-26T05:20:37.200Z,25.68
2017-06-26T05:21:17.653Z,25.68
2017-06-26T05:21:58.107Z,25.74
2017-06-26T05:22:38.569Z,25.71
2017-06-26T05:23:19.022Z,25.73
2017-06-26T05:23:59.488Z,25.73
2017-06-26T05:24:39.947Z,25.76
2017-06-26T05:25:20.413Z,25.73
2017-06-26T05:26:00.876Z,25.74
2017-06-26T05:26:41.318Z,25.76
2017-06-26T05:27:21.779Z,25.74
2017-06-26T05:28:02.221Z,25.71
2017-06-26T05:28:42.669Z,25.83
2017-06-26T05:29:23.120Z,25.8
2017-06-26T05:30:03.567Z,25.71
2017-06-26T05:30:44.014Z,25.77
2017-06-26T05:31:24.464Z,25.74
2017-06-26T05:32:04.920Z,25.78
2017-06-26T05:32:45.370Z,25.86
2017-06-26T05:33:25.848Z,25.81
2017-06-26T05:34:06.284Z,25.78
2017-06-26T05:34:46.712Z,25.85
2017-06-26T05:35:27.163Z,25.86
2017-06-26T05:36:07.608Z,25.83
2017-06-26T05:36:48.070Z,25.83
2017-06-26T05:37:28.521Z,25.85
2017-06-26T05:38:08.982Z,25.85
2017-06-26T05:38:49.436Z,25.83
2017-06-26T05:39:29.892Z,25.85
2017-06-26T05:40:10.347Z,25.81
2017-06-26T05:40:50.807Z,25.88
2017-06-26T05:41:31.264Z,25.81
2017-06-26T05:42:11.723Z,25.8
2017-06-26T05:42:52.194Z,25.89
2017-06-26T05:43:32.645Z,25.88
2017-06-26T05:44:13.093Z,25.81
2017-06-26T05:44:53.544Z,25.85
2017-06-26T05:45:33.990Z,25.91
2017-06-26T05:46:14.449Z,25.81
2017-06-26T05:46:54.909Z,25.81
2017-06-26T05:47:35.365Z,25.88
2017-06-26T05:48:15.818Z,25.85
2017-06-26T05:48:56.284Z,25.91
2017-06-26T05:49:36.737Z,25.86
2017-06-26T05:50:17.191Z,25.95
2017-06-26T05:50:57.648Z,25.91
2017-06-26T05:51:38.101Z,25.89
2017-06-26T05:52:18.559Z,25.92
2017-06-26T05:52:59.023Z,25.92
2017-06-26T05:53:39.480Z,25.95
2017-06-26T05:54:19.936Z,25.98
2017-06-26T05:55:00.388Z,25.96
2017-06-26T05:55:40.839Z,25.92
2017-06-26T05:56:21.294Z,25.93
2017-06-26T05:57:01.751Z,25.99
2017-06-26T05:57:42.214Z,25.98
2017-06-26T05:58:22.672Z,25.99
2017-06-26T05:59:03.138Z,25.96
2017-06-26T05:59:43.598Z,25.96
2017-06-26T06:00:24.068Z,25.96
2017-06-26T06:01:04.526Z,25.96
2017-06-26T06:01:44.982Z,25.96
2017-06-26T06:02:25.438Z,26.01
2017-06-26T06:03:05.898Z,26.01
2017-06-26T06:03:46.361Z,25.98
2017-06-26T06:04:26.825Z,26.06
2017-06-26T06:05:07.284Z,26.01
2017-06-26T06:05:47.736Z,26.07
2017-06-26T06:06:28.193Z,26.04
2017-06-26T06:07:08.649Z,26.01
2017-06-26T06:07:49.105Z,26.04
2017-06-26T06:08:29.558Z,26.1
2017-06-26T06:09:10.017Z,26.07
2017-06-26T06:09:50.477Z,26.07
2017-06-26T06:10:30.933Z,26.1
2017-06-26T06:11:11.418Z,26.06
2017-06-26T06:11:51.844Z,26.1
2017-06-26T06:12:32.307Z,26.06
2017-06-26T06:13:12.760Z,26.08
2017-06-26T06:13:53.218Z,25.95
2017-06-26T06:14:33.676Z,25.98
2017-06-26T06:15:14.137Z,25.99
2017-06-26T06:15:54.593Z,26.11
2017-06-26T06:16:35.051Z,26.18
2017-06-26T06:17:15.513Z,25.96
2017-06-26T06:17:55.975Z,26.01
2017-06-26T06:18:36.437Z,26.07
2017-06-26T06:19:16.901Z,26.03
2017-06-26T06:19:57.362Z,26.04
2017-06-26T06:20:37.817Z,26.11
2017-06-26T06:21:18.273Z,25.98
2017-06-26T06:21:58.732Z,25.96
2017-06-26T06:22:39.190Z,26.11
2017-06-26T06:23:19.650Z,26.03
2017-06-26T06:24:00.109Z,26.1
2017-06-26T06:24:40.568Z,26.07
2017-06-26T06:25:21.025Z,26.04
2017-06-26T06:26:01.478Z,26.11
2017-06-26T06:26:41.930Z,26.15
2017-06-26T06:27:22.388Z,26.11
2017-06-26T06:28:02.846Z,26.16
2017-06-26T06:28:43.298Z,26.01
2017-06-26T06:29:23.752Z,26.16
2017-06-26T06:30:04.206Z,26.13
2017-06-26T06:30:44.659Z,26.03
2017-06-26T06:31:25.123Z,26.16
2017-06-26T06:32:05.581Z,26.11
2017-06-26T06:32:46.039Z,26.18
2017-06-26T06:33:26.500Z,26.11
2017-06-26T06:34:06.975Z,26.13
2017-06-26T06:34:47.434Z,26.18
2017-06-26T06:35:27.885Z,26.11
2017-06-26T06:36:08.340Z,26.16
2017-06-26T06:36:48.794Z,26.15
2017-06-26T06:37:29.253Z,26.11
2017-06-26T06:38:09.711Z,26.08
2017-06-26T06:38:50.167Z,26.16
2017-06-26T06:39:30.623Z,26.22
2017-06-26T06:40:11.107Z,26.23
2017-06-26T06:40:51.539Z,26.16
2017-06-26T06:41:32.008Z,26.27
2017-06-26T06:42:12.444Z,26.27
2017-06-26T06:42:52.900Z,26.3
2017-06-26T06:43:33.348Z,26.23
2017-06-26T06:44:13.804Z,26.3
2017-06-26T06:44:54.259Z,26.27
2017-06-26T06:45:34.715Z,26.3
2017-06-26T06:46:15.175Z,26.31
2017-06-26T06:46:55.633Z,26.3
2017-06-26T06:47:36.096Z,26.26
2017-06-26T06:48:16.551Z,26.31
2017-06-26T06:48:57.017Z,26.24
2017-06-26T06:49:37.468Z,26.3
2017-06-26T06:50:17.926Z,26.31
2017-06-26T06:50:58.372Z,26.29
2017-06-26T06:51:38.832Z,26.29
2017-06-26T06:52:19.285Z,26.36
2017-06-26T06:52:59.742Z,26.3
2017-06-26T06:53:40.200Z,26.3
2017-06-26T06:54:20.659Z,26.34
2017-06-26T06:55:01.118Z,26.37
2017-06-26T06:55:41.593Z,26.44
2017-06-26T06:56:22.060Z,26.41
2017-06-26T06:57:02.510Z,26.41
2017-06-26T06:57:42.968Z,26.36
2017-06-26T06:58:23.427Z,26.39
2017-06-26T06:59:03.887Z,26.49
2017-06-26T06:59:44.347Z,26.48
2017-06-26T07:00:24.806Z,26.45
2017-06-26T07:01:05.267Z,26.42
2017-06-26T07:01:45.727Z,26.44
2017-06-26T07:02:26.192Z,26.49
2017-06-26T07:03:06.649Z,26.45
2017-06-26T07:03:47.111Z,26.44
2017-06-26T07:04:27.569Z,26.45
2017-06-26T07:05:08.022Z,26.49
2017-06-26T07:05:48.483Z,26.49
2017-06-26T07:06:28.934Z,26.46
2017-06-26T07:07:09.397Z,26.42
2017-06-26T07:07:49.860Z,26.46
2017-06-26T07:08:30.318Z,26.48
2017-06-26T07:09:10.776Z,26.49
2017-06-26T07:09:51.237Z,26.45
2017-06-26T07:10:31.699Z,26.48
2017-06-26T07:11:12.153Z,26.49
2017-06-26T07:11:52.617Z,26.51
2017-06-26T07:12:33.084Z,26.49
2017-06-26T07:13:13.543Z,26.53
2017-06-26T07:13:54.004Z,26.56
2017-06-26T07:14:34.460Z,26.55
2017-06-26T07:15:14.922Z,26.61
2017-06-26T07:15:55.383Z,26.59
2017-06-26T07:16:35.843Z,26.55
2017-06-26T07:17:16.307Z,26.56
2017-06-26T07:17:56.764Z,26.53
2017-06-26T07:18:37.236Z,26.59
2017-06-26T07:19:17.698Z,26.61
2017-06-26T07:19:58.159Z,26.6
2017-06-26T07:20:38.617Z,26.66
2017-06-26T07:21:19.075Z,26.59
2017-06-26T07:21:59.541Z,26.64
2017-06-26T07:22:40.000Z,26.66
2017-06-26T07:23:20.459Z,26.66
2017-06-26T07:24:00.922Z,26.66
2017-06-26T07:24:41.371Z,26.68
2017-06-26T07:25:21.834Z,26.7
2017-06-26T07:26:02.290Z,26.71
2017-06-26T07:26:42.747Z,26.7
2017-06-26T07:27:23.206Z,26.67
2017-06-26T07:28:03.671Z,26.68
2017-06-26T07:28:44.128Z,26.64
2017-06-26T07:29:24.585Z,26.63
2017-06-26T07:30:05.049Z,26.64
2017-06-26T07:30:45.516Z,26.64
2017-06-26T07:31:25.970Z,26.71
2017-06-26T07:32:06.431Z,26.71
2017-06-26T07:32:46.890Z,26.73
2017-06-26T07:33:27.348Z,26.64
2017-06-26T07:34:07.809Z,26.64
2017-06-26T07:34:48.264Z,26.7
2017-06-26T07:35:28.721Z,26.67
2017-06-26T07:36:09.185Z,26.73
2017-06-26T07:36:49.643Z,26.85
2017-06-26T07:37:30.104Z,26.78
2017-06-26T07:38:10.560Z,26.73
2017-06-26T07:38:51.016Z,26.83
2017-06-26T07:39:31.484Z,26.82
2017-06-26T07:40:11.945Z,26.82
2017-06-26T07:40:52.402Z,26.81
2017-06-26T07:41:32.858Z,26.73
2017-06-26T07:42:13.314Z,26.85
2017-06-26T07:42:53.776Z,26.78
2017-06-26T07:43:34.226Z,26.81
2017-06-26T07:44:14.682Z,26.79
2017-06-26T07:44:55.137Z,26.88
2017-06-26T07:45:35.595Z,26.86
2017-06-26T07:46:16.135Z,26.85
2017-06-26T07:46:56.580Z,26.85
2017-06-26T07:47:37.034Z,26.86
2017-06-26T07:48:17.489Z,26.91
2017-06-26T07:48:57.954Z,26.89
2017-06-26T07:49:38.407Z,26.92
2017-06-26T07:50:18.865Z,26.93
2017-06-26T07:50:59.324Z,26.85
2017-06-26T07:51:39.788Z,26.93
2017-06-26T07:52:20.246Z,26.96
2017-06-26T07:53:00.705Z,26.93
2017-06-26T07:53:41.178Z,26.89
2017-06-26T07:54:21.637Z,26.91
2017-06-26T07:55:02.094Z,26.91
2017-06-26T07:55:42.551Z,26.96
2017-06-26T07:56:23.018Z,26.97
2017-06-26T07:57:03.475Z,27
2017-06-26T07:57:43.935Z,27.03
2017-06-26T07:58:24.395Z,27.01
2017-06-26T07:59:04.859Z,27
2017-06-26T07:59:45.317Z,27.04
2017-06-26T08:00:25.774Z,27
2017-06-26T08:01:08.125Z,27
2017-06-26T08:01:48.590Z,27.01
2017-06-26T08:02:29.038Z,27.16
2017-06-26T08:03:09.497Z,27.07
2017-06-26T08:03:49.956Z,27.1
2017-06-26T08:04:30.414Z,27.1
2017-06-26T08:05:10.873Z,27.13
2017-06-26T08:05:51.316Z,27.19
2017-06-26T08:06:31.773Z,27.19
2017-06-26T08:07:12.235Z,27.25
2017-06-26T08:07:52.690Z,27.18
2017-06-26T08:08:33.145Z,27.26
2017-06-26T08:09:13.605Z,27.19
2017-06-26T08:09:54.066Z,27.28
2017-06-26T08:10:34.530Z,27.18
2017-06-26T08:11:14.976Z,27.19
2017-06-26T08:11:55.441Z,27.08
2017-06-26T08:12:35.899Z,27.22
2017-06-26T08:13:16.351Z,27.22
2017-06-26T08:13:56.813Z,27.22
2017-06-26T08:14:37.277Z,27.19
2017-06-26T08:15:17.739Z,27.15
2017-06-26T08:15:58.199Z,27.18
2017-06-26T08:16:38.659Z,27.18
2017-06-26T08:17:19.122Z,27.26
2017-06-26T08:17:59.583Z,27.25
2017-06-26T08:18:40.045Z,27.16
2017-06-26T08:19:20.501Z,27.15
2017-06-26T08:20:00.965Z,27.22
2017-06-26T08:20:41.416Z,27.16
2017-06-26T08:21:21.880Z,27.29
2017-06-26T08:22:02.340Z,27.25
2017-06-26T08:22:42.791Z,27.25
2017-06-26T08:23:23.252Z,27.23
2017-06-26T08:24:03.710Z,27.19
2017-06-26T08:24:44.171Z,27.28
2017-06-26T08:25:24.632Z,27.26
2017-06-26T08:26:05.084Z,27.23
2017-06-26T08:26:45.539Z,27.28
2017-06-26T08:27:26.001Z,27.3
2017-06-26T08:28:06.459Z,27.23
2017-06-26T08:28:46.919Z,27.23
2017-06-26T08:29:27.381Z,27.25
2017-06-26T08:30:07.830Z,27.22
2017-06-26T08:30:48.288Z,27.23
2017-06-26T08:31:28.769Z,27.18
2017-06-26T08:32:09.220Z,27.2
2017-06-26T08:32:49.686Z,27.33
2017-06-26T08:33:30.140Z,27.23
2017-06-26T08:34:10.603Z,27.28
2017-06-26T08:34:51.058Z,27.28
2017-06-26T08:35:31.516Z,27.35
2017-06-26T08:36:11.978Z,27.38
2017-06-26T08:36:52.433Z,27.3
2017-06-26T08:37:32.892Z,27.35
2017-06-26T08:38:13.358Z,27.37
2017-06-26T08:38:53.820Z,27.34
2017-06-26T08:39:34.281Z,27.38
2017-06-26T08:40:14.738Z,27.38
2017-06-26T08:40:55.193Z,27.38
2017-06-26T08:41:35.650Z,27.37
2017-06-26T08:42:16.134Z,27.37
2017-06-26T08:42:56.580Z,27.41
2017-06-26T08:43:37.039Z,27.4
2017-06-26T08:44:17.505Z,27.28
2017-06-26T08:44:57.972Z,27.37
2017-06-26T08:45:38.421Z,27.35